createdAt,value
2019-05-16T00:01:32.521Z,9.68
2019-05-16T00:04:02.631Z,9.68
2019-05-16T00:06:32.780Z,9.59
2019-05-16T00:09:05.468Z,9.49
2019-05-16T00:11:35.623Z,9.63
2019-05-16T00:14:08.184Z,9.82
2019-05-16T00:16:38.115Z,9.63
2019-05-16T00:19:09.111Z,9.51
2019-05-16T00:21:39.521Z,9.50
2019-05-16T00:24:11.370Z,9.63
2019-05-16T00:26:41.616Z,9.43
2019-05-16T00:29:11.826Z,9.44
2019-05-16T00:31:42.036Z,9.43
2019-05-16T00:34:12.178Z,9.38
2019-05-16T00:36:42.517Z,9.23
2019-05-16T00:39:12.921Z,9.40
2019-05-16T00:41:43.088Z,9.41
2019-05-16T00:44:13.494Z,9.34
2019-05-16T00:46:45.194Z,9.35
2019-05-16T00:49:15.376Z,9.45
2019-05-16T00:51:45.573Z,9.42
2019-05-16T00:54:15.850Z,9.19
2019-05-16T00:56:48.600Z,9.25
2019-05-16T00:59:18.925Z,9.09
2019-05-16T01:01:50.449Z,9.15
2019-05-16T01:04:20.727Z,8.98
2019-05-16T01:06:51.524Z,9.05
2019-05-16T01:09:21.758Z,8.98
2019-05-16T01:11:51.965Z,8.98
2019-05-16T01:14:22.266Z,8.98
2019-05-16T01:16:55.571Z,8.82
2019-05-16T01:19:27.749Z,8.65
2019-05-16T01:21:58.986Z,8.64
2019-05-16T01:24:29.432Z,8.75
2019-05-16T01:26:59.779Z,8.67
2019-05-16T01:29:30.003Z,8.69
2019-05-16T01:32:00.191Z,8.76
2019-05-16T01:34:30.493Z,8.77
2019-05-16T01:37:00.636Z,8.70
2019-05-16T01:39:30.853Z,8.71
2019-05-16T01:42:01.089Z,8.55
2019-05-16T01:44:31.251Z,8.47
2019-05-16T01:47:01.438Z,8.39
2019-05-16T01:49:31.593Z,8.61
2019-05-16T01:52:01.760Z,8.35
2019-05-16T01:54:32.243Z,8.53
2019-05-16T01:57:04.023Z,8.51
2019-05-16T01:59:34.192Z,8.51
2019-05-16T02:02:04.328Z,8.44
2019-05-16T02:04:37.963Z,8.30
2019-05-16T02:07:08.538Z,8.27
2019-05-16T02:09:38.868Z,8.51
2019-05-16T02:12:10.787Z,8.27
2019-05-16T02:14:41.394Z,8.31
2019-05-16T02:17:11.622Z,8.24
2019-05-16T02:19:41.937Z,8.37
2019-05-16T02:22:12.182Z,8.16
2019-05-16T02:24:42.394Z,7.98
2019-05-16T02:27:13.697Z,7.71
2019-05-16T02:29:44.047Z,7.73
2019-05-16T02:32:15.661Z,7.82
2019-05-16T02:34:45.798Z,7.64
2019-05-16T02:37:24.038Z,7.53
2019-05-16T02:39:51.562Z,7.55
2019-05-16T02:42:21.230Z,7.43
2019-05-16T02:44:52.651Z,7.49
2019-05-16T02:47:22.781Z,7.33
2019-05-16T02:49:52.892Z,7.36
2019-05-16T02:52:23.018Z,7.37
2019-05-16T02:54:53.115Z,7.47
2019-05-16T02:57:23.356Z,7.49
2019-05-16T02:59:53.509Z,7.33
2019-05-16T03:02:23.601Z,7.31
2019-05-16T03:04:53.687Z,7.33
2019-05-16T03:07:37.963Z,7.13
2019-05-16T03:09:57.034Z,7.07
2019-05-16T03:12:30.945Z,7.00
2019-05-16T03:15:02.420Z,7.17
2019-05-16T03:17:36.214Z,6.87
2019-05-16T03:20:06.730Z,6.95
2019-05-16T03:22:40.951Z,6.93
2019-05-16T03:25:11.934Z,6.94
2019-05-16T03:27:42.230Z,6.89
2019-05-16T03:30:15.985Z,6.86
2019-05-16T03:32:47.378Z,6.85
2019-05-16T03:35:23.859Z,6.79
2019-05-16T03:37:56.906Z,6.76
2019-05-16T03:40:26.370Z,6.82
2019-05-16T03:42:56.495Z,6.71
2019-05-16T03:45:26.697Z,6.82
2019-05-16T03:47:56.730Z,7.13
2019-05-16T03:50:26.963Z,6.84
2019-05-16T03:52:57.166Z,7.04
2019-05-16T03:55:32.084Z,7.26
2019-05-16T03:58:01.149Z,7.15
2019-05-16T04:00:55.993Z,6.88
2019-05-16T04:03:28.872Z,7.18
2019-05-16T04:06:01.260Z,7.09
2019-05-16T04:08:31.182Z,7.22
2019-05-16T04:11:02.601Z,7.15
2019-05-16T04:13:32.990Z,7.22
2019-05-16T04:16:03.323Z,7.26
2019-05-16T04:18:33.482Z,7.21
2019-05-16T04:21:03.791Z,7.37
2019-05-16T04:23:34.135Z,7.37
2019-05-16T04:26:04.263Z,7.30
2019-05-16T04:28:34.742Z,7.30
2019-05-16T04:31:04.887Z,7.33
2019-05-16T04:33:35.058Z,7.31
2019-05-16T04:36:05.178Z,7.44
2019-05-16T04:38:41.385Z,7.34
2019-05-16T04:41:07.284Z,7.49
2019-05-16T04:43:37.458Z,7.50
2019-05-16T04:46:07.611Z,7.59
2019-05-16T04:48:41.444Z,7.71
2019-05-16T04:51:10.649Z,7.76
2019-05-16T04:53:42.556Z,7.80
2019-05-16T04:56:13.258Z,7.77
2019-05-16T04:58:43.538Z,7.90
2019-05-16T05:01:13.713Z,8.05
2019-05-16T05:04:00.119Z,8.17
2019-05-16T05:06:15.856Z,8.47
2019-05-16T05:08:59.120Z,8.41
2019-05-16T05:11:26.610Z,8.70
2019-05-16T05:13:56.787Z,8.81
2019-05-16T05:16:27.192Z,9.01
2019-05-16T05:19:00.302Z,9.13
2019-05-16T05:21:31.426Z,9.18
2019-05-16T05:24:01.719Z,9.29
2019-05-16T05:26:34.864Z,9.34
2019-05-16T05:29:06.301Z,9.35
2019-05-16T05:31:36.479Z,9.50
2019-05-16T05:34:06.683Z,9.61
2019-05-16T05:36:40.869Z,9.72
2019-05-16T05:39:15.594Z,9.79
2019-05-16T05:41:45.202Z,9.86
2019-05-16T05:44:15.401Z,9.93
2019-05-16T05:46:45.626Z,10.01
2019-05-16T05:49:20.504Z,10.12
2019-05-16T05:51:50.892Z,10.15
2019-05-16T05:54:21.080Z,10.27
2019-05-16T05:56:51.254Z,10.37
2019-05-16T05:59:24.025Z,10.44
2019-05-16T06:01:54.228Z,10.48
2019-05-16T06:04:24.358Z,10.47
2019-05-16T06:06:54.593Z,10.50
2019-05-16T06:09:29.122Z,10.57
2019-05-16T06:11:56.775Z,10.60
2019-05-16T06:14:27.007Z,10.69
2019-05-16T06:17:00.377Z,10.77
2019-05-16T06:19:30.800Z,10.88
2019-05-16T06:22:01.569Z,11.00
2019-05-16T06:24:32.126Z,11.09
2019-05-16T06:27:03.902Z,10.99
2019-05-16T06:29:34.204Z,11.05
2019-05-16T06:32:04.430Z,11.07
2019-05-16T06:34:34.676Z,11.21
2019-05-16T06:37:04.870Z,11.36
2019-05-16T06:39:42.043Z,11.43
2019-05-16T06:42:06.960Z,11.38
2019-05-16T06:44:37.193Z,11.40
2019-05-16T06:47:16.969Z,11.55
2019-05-16T06:49:40.258Z,11.49
2019-05-16T06:52:10.567Z,11.64
2019-05-16T06:54:40.828Z,11.73
2019-05-16T06:57:11.226Z,11.60
2019-05-16T06:59:41.552Z,11.69
2019-05-16T07:02:25.201Z,11.66
2019-05-16T07:04:43.554Z,11.57
2019-05-16T07:07:13.983Z,11.65
2019-05-16T07:09:57.177Z,11.67
2019-05-16T07:12:15.978Z,11.95
2019-05-16T07:14:46.170Z,12.03
2019-05-16T07:17:16.442Z,11.92
2019-05-16T07:19:46.672Z,12.09
2019-05-16T07:22:16.847Z,12.21
2019-05-16T07:24:46.988Z,12.41
2019-05-16T07:27:17.190Z,12.46
2019-05-16T07:29:47.330Z,12.65
2019-05-16T07:32:19.710Z,12.58
2019-05-16T07:34:50.568Z,12.77
2019-05-16T07:37:22.832Z,12.64
2019-05-16T07:39:53.014Z,12.82
2019-05-16T07:42:24.773Z,12.91
2019-05-16T07:44:55.025Z,13.02
2019-05-16T07:47:25.168Z,13.05
2019-05-16T07:49:59.583Z,13.29
2019-05-16T07:52:35.208Z,13.46
2019-05-16T07:55:03.976Z,13.60
2019-05-16T07:57:34.055Z,13.51
2019-05-16T08:00:04.664Z,13.36
2019-05-16T08:02:34.900Z,13.78
2019-05-16T08:05:06.942Z,13.40
2019-05-16T08:07:37.324Z,13.66
2019-05-16T08:10:10.601Z,13.95
2019-05-16T08:12:43.129Z,13.92
2019-05-16T08:15:13.780Z,13.75
2019-05-16T08:17:44.625Z,13.72
2019-05-16T08:20:14.930Z,13.59
2019-05-16T08:22:45.118Z,13.96
2019-05-16T08:25:15.467Z,13.78
2019-05-16T08:27:45.793Z,13.78
2019-05-16T08:30:21.070Z,13.65
2019-05-16T08:32:52.744Z,14.17
2019-05-16T08:35:22.836Z,13.95
2019-05-16T08:37:53.031Z,14.04
2019-05-16T08:40:24.404Z,13.71
2019-05-16T08:42:54.750Z,13.96
2019-05-16T08:45:24.887Z,14.54
2019-05-16T08:47:55.096Z,14.63
2019-05-16T08:50:25.290Z,14.83
2019-05-16T08:52:55.509Z,14.22
2019-05-16T08:55:25.606Z,14.26
2019-05-16T08:57:55.730Z,14.05
2019-05-16T09:00:26.481Z,13.88
2019-05-16T09:02:56.699Z,13.97
2019-05-16T09:05:26.908Z,14.09
2019-05-16T09:08:00.838Z,13.94
2019-05-16T09:10:58.655Z,14.02
2019-05-16T09:13:00.998Z,14.12
2019-05-16T09:15:34.521Z,14.30
2019-05-16T09:18:07.515Z,14.36
2019-05-16T09:20:37.456Z,14.24
2019-05-16T09:23:08.699Z,14.00
2019-05-16T09:25:39.039Z,14.31
2019-05-16T09:28:09.290Z,14.47
2019-05-16T09:30:40.610Z,14.35
2019-05-16T09:33:18.913Z,14.33
2019-05-16T09:35:50.498Z,14.54
2019-05-16T09:38:23.775Z,14.38
2019-05-16T09:40:53.100Z,14.67
2019-05-16T09:43:23.331Z,14.86
2019-05-16T09:45:59.935Z,15.05
2019-05-16T09:48:28.047Z,15.07
2019-05-16T09:50:57.983Z,15.13
2019-05-16T09:53:28.264Z,15.11
2019-05-16T09:55:58.740Z,14.76
2019-05-16T09:58:29.045Z,15.10
2019-05-16T10:00:59.511Z,15.43
2019-05-16T10:03:29.741Z,14.93
2019-05-16T10:05:59.987Z,15.42
2019-05-16T10:08:30.231Z,15.28
2019-05-16T10:11:00.887Z,15.71
2019-05-16T10:13:31.127Z,16.84
2019-05-16T10:16:01.573Z,16.59
2019-05-16T10:18:31.881Z,16.65
2019-05-16T10:21:02.082Z,16.10
2019-05-16T10:23:36.439Z,16.11
2019-05-16T10:26:06.748Z,15.90
2019-05-16T10:28:38.475Z,16.06
2019-05-16T10:31:09.855Z,16.30
2019-05-16T10:33:40.171Z,16.09
2019-05-16T10:36:10.358Z,16.85
2019-05-16T10:38:40.471Z,16.47
2019-05-16T10:41:13.835Z,16.23
2019-05-16T10:43:44.250Z,16.46
2019-05-16T10:46:17.447Z,16.09
2019-05-16T10:48:47.481Z,16.27
2019-05-16T10:51:17.645Z,16.04
2019-05-16T10:54:13.137Z,16.04
2019-05-16T10:56:19.799Z,16.78
2019-05-16T10:59:14.162Z,16.51
2019-05-16T11:01:27.554Z,16.37
2019-05-16T11:03:56.640Z,16.48
2019-05-16T11:06:29.160Z,16.67
2019-05-16T11:08:57.597Z,16.61
2019-05-16T11:11:27.744Z,16.29
2019-05-16T11:13:57.974Z,16.77
2019-05-16T11:16:29.667Z,16.36
2019-05-16T11:19:14.442Z,17.54
2019-05-16T11:21:32.593Z,17.75
2019-05-16T11:24:02.790Z,17.39
2019-05-16T11:26:32.867Z,17.98
2019-05-16T11:29:03.098Z,17.85
2019-05-16T11:31:33.399Z,18.56
2019-05-16T11:34:03.627Z,18.01
2019-05-16T11:36:33.747Z,17.95
2019-05-16T11:39:08.617Z,18.29
2019-05-16T11:41:39.109Z,18.24
2019-05-16T11:44:09.293Z,19.04
2019-05-16T11:46:39.463Z,18.37
2019-05-16T11:49:10.812Z,17.18
2019-05-16T11:51:40.924Z,17.26
2019-05-16T11:54:12.147Z,17.28
2019-05-16T11:56:42.282Z,17.96
2019-05-16T11:59:12.467Z,17.45
2019-05-16T12:01:42.651Z,18.16
2019-05-16T12:04:12.799Z,17.95
2019-05-16T12:06:43.017Z,17.52
2019-05-16T12:09:13.419Z,17.74
2019-05-16T12:11:45.160Z,17.51
2019-05-16T12:14:16.564Z,17.24
2019-05-16T12:16:47.417Z,17.43
2019-05-16T12:19:18.242Z,17.05
2019-05-16T12:21:48.566Z,17.72
2019-05-16T12:24:31.972Z,18.09
2019-05-16T12:26:50.561Z,17.96
2019-05-16T12:29:20.744Z,18.34
2019-05-16T12:31:57.574Z,18.83
2019-05-16T12:34:22.831Z,18.68
2019-05-16T12:36:53.015Z,18.90
2019-05-16T12:39:23.391Z,18.96
2019-05-16T12:41:53.583Z,19.32
2019-05-16T12:44:26.871Z,19.02
2019-05-16T12:46:57.129Z,19.73
2019-05-16T12:49:27.330Z,19.20
2019-05-16T12:51:59.731Z,19.45
2019-05-16T12:54:31.036Z,19.53
2019-05-16T12:57:01.424Z,19.72
2019-05-16T12:59:31.585Z,20.00
2019-05-16T13:02:01.768Z,20.49
2019-05-16T13:04:32.050Z,19.37
2019-05-16T13:07:02.388Z,19.65
2019-05-16T13:09:32.672Z,19.62
2019-05-16T13:12:06.910Z,20.04
2019-05-16T13:14:40.317Z,19.80
2019-05-16T13:17:19.521Z,19.28
2019-05-16T13:19:57.656Z,19.72
2019-05-16T13:22:27.897Z,19.98
2019-05-16T13:24:58.131Z,19.80
2019-05-16T13:27:28.346Z,20.03
2019-05-16T13:29:58.698Z,19.95
2019-05-16T13:32:28.931Z,19.92
2019-05-16T13:34:59.388Z,20.29
2019-05-16T13:37:30.560Z,19.99
2019-05-16T13:40:00.749Z,19.81
2019-05-16T13:42:30.977Z,19.59
2019-05-16T13:45:01.776Z,20.10
2019-05-16T13:47:32.139Z,19.83
2019-05-16T13:50:04.456Z,19.63
2019-05-16T13:52:36.610Z,19.49
2019-05-16T13:55:08.279Z,19.87
2019-05-16T13:57:38.339Z,20.20
2019-05-16T14:00:09.799Z,19.49
2019-05-16T14:02:41.419Z,19.29
2019-05-16T14:05:12.179Z,19.22
2019-05-16T14:07:42.320Z,19.33
2019-05-16T14:10:12.758Z,18.95
2019-05-16T14:12:42.878Z,19.04
2019-05-16T14:15:13.705Z,18.87
2019-05-16T14:17:43.929Z,19.42
2019-05-16T14:20:17.970Z,20.35
2019-05-16T14:22:47.121Z,19.39
2019-05-16T14:25:17.513Z,19.33
2019-05-16T14:27:48.580Z,19.70
2019-05-16T14:30:21.956Z,18.88
2019-05-16T14:32:52.274Z,18.79
2019-05-16T14:35:22.753Z,18.90
2019-05-16T14:37:57.391Z,18.55
2019-05-16T14:40:27.774Z,18.06
2019-05-16T14:42:58.245Z,18.14
2019-05-16T14:45:28.629Z,18.22
2019-05-16T14:47:58.928Z,18.56
2019-05-16T14:50:29.067Z,18.77
2019-05-16T14:53:00.279Z,18.55
2019-05-16T14:55:32.989Z,18.32
2019-05-16T14:58:03.181Z,18.38
2019-05-16T15:00:37.951Z,19.69
2019-05-16T15:03:08.193Z,20.16
2019-05-16T15:05:42.531Z,20.71
2019-05-16T15:08:11.064Z,20.73
2019-05-16T15:10:46.742Z,19.67
2019-05-16T15:13:17.433Z,18.53
2019-05-16T15:15:47.887Z,18.29
2019-05-16T15:18:18.273Z,18.16
2019-05-16T15:20:49.419Z,18.32
2019-05-16T15:23:19.708Z,18.25
2019-05-16T15:25:51.444Z,17.97
2019-05-16T15:28:54.665Z,17.46
2019-05-16T15:30:57.576Z,17.98
2019-05-16T15:33:27.856Z,17.85
2019-05-16T15:35:58.167Z,17.49
2019-05-16T15:38:28.660Z,17.40
2019-05-16T15:41:00.557Z,17.50
2019-05-16T15:43:30.838Z,17.17
2019-05-16T15:46:01.663Z,17.43
2019-05-16T15:48:32.148Z,17.96
2019-05-16T15:51:02.322Z,17.23
2019-05-16T15:53:32.704Z,17.06
2019-05-16T15:56:02.900Z,16.66
2019-05-16T15:58:33.291Z,16.63
2019-05-16T16:01:03.583Z,16.82
2019-05-16T16:03:34.088Z,16.50
2019-05-16T16:06:06.835Z,16.58
2019-05-16T16:08:37.605Z,16.29
2019-05-16T16:11:07.917Z,15.91
2019-05-16T16:13:38.189Z,16.25
2019-05-16T16:16:10.045Z,15.86
2019-05-16T16:18:40.516Z,15.60
2019-05-16T16:21:10.743Z,15.65
2019-05-16T16:23:40.898Z,15.67
2019-05-16T16:26:11.147Z,15.63
2019-05-16T16:28:41.388Z,15.56
2019-05-16T16:31:11.634Z,15.64
2019-05-16T16:33:41.966Z,15.30
2019-05-16T16:36:12.130Z,15.16
2019-05-16T16:38:42.687Z,15.29
2019-05-16T16:41:13.491Z,15.02
2019-05-16T16:43:43.659Z,15.25
2019-05-16T16:46:16.614Z,15.51
2019-05-16T16:48:46.241Z,15.56
2019-05-16T16:51:17.581Z,15.28
2019-05-16T16:53:48.202Z,14.99
2019-05-16T16:56:20.017Z,14.83
2019-05-16T16:58:50.290Z,14.64
2019-05-16T17:01:20.435Z,14.63
2019-05-16T17:03:54.554Z,14.60
2019-05-16T17:06:23.595Z,14.35
2019-05-16T17:08:53.768Z,14.46
2019-05-16T17:11:26.445Z,14.64
2019-05-16T17:13:56.855Z,14.56
2019-05-16T17:16:29.154Z,14.56
2019-05-16T17:18:58.981Z,14.51
2019-05-16T17:21:29.189Z,14.36
2019-05-16T17:23:59.422Z,14.26
2019-05-16T17:26:29.820Z,13.95
2019-05-16T17:29:00.163Z,13.97
2019-05-16T17:31:31.952Z,14.14
2019-05-16T17:34:02.378Z,13.79
2019-05-16T17:36:32.564Z,13.91
2019-05-16T17:39:04.575Z,13.80
2019-05-16T17:41:38.167Z,13.57
2019-05-16T17:44:08.530Z,13.34
2019-05-16T17:46:40.963Z,13.23
2019-05-16T17:49:10.959Z,13.31
2019-05-16T17:51:42.149Z,13.45
2019-05-16T17:54:12.415Z,13.22
2019-05-16T17:56:42.537Z,13.28
2019-05-16T17:59:12.913Z,13.15
2019-05-16T18:01:43.175Z,13.18
2019-05-16T18:04:13.523Z,13.13
2019-05-16T18:06:43.754Z,12.91
2019-05-16T18:09:14.009Z,12.89
2019-05-16T18:11:46.658Z,12.97
2019-05-16T18:14:17.230Z,12.87
2019-05-16T18:16:58.571Z,12.75
2019-05-16T18:19:23.820Z,12.83
2019-05-16T18:21:53.962Z,12.73
2019-05-16T18:24:24.215Z,12.61
2019-05-16T18:26:54.225Z,12.59
2019-05-16T18:29:26.785Z,12.63
2019-05-16T18:31:56.497Z,12.66
2019-05-16T18:34:30.007Z,12.86
2019-05-16T18:37:00.324Z,12.56
2019-05-16T18:39:30.693Z,12.56
2019-05-16T18:42:02.781Z,12.55
2019-05-16T18:44:53.218Z,12.44
2019-05-16T18:47:23.436Z,12.63
2019-05-16T18:49:53.611Z,12.60
2019-05-16T18:52:23.908Z,12.40
2019-05-16T18:54:54.150Z,12.51
2019-05-16T18:57:26.815Z,12.45
2019-05-16T18:59:56.794Z,12.58
2019-05-16T19:02:27.342Z,12.54
2019-05-16T19:04:59.410Z,12.43
2019-05-16T19:07:29.635Z,12.44
2019-05-16T19:09:59.852Z,12.38
2019-05-16T19:12:30.777Z,12.30
2019-05-16T19:15:01.037Z,12.39
2019-05-16T19:17:31.809Z,12.35
2019-05-16T19:20:02.190Z,12.34
2019-05-16T19:22:32.585Z,12.23
2019-05-16T19:25:02.952Z,12.17
2019-05-16T19:27:33.366Z,12.03
2019-05-16T19:30:03.776Z,12.33
2019-05-16T19:32:38.965Z,12.21
2019-05-16T19:35:08.450Z,12.22
2019-05-16T19:37:40.768Z,12.07
2019-05-16T19:40:11.556Z,12.12
2019-05-16T19:42:42.161Z,12.33
2019-05-16T19:45:17.210Z,12.23
2019-05-16T19:47:47.471Z,12.23
2019-05-16T19:50:19.229Z,12.19
2019-05-16T19:52:49.594Z,12.24
2019-05-16T19:55:19.959Z,12.30
2019-05-16T19:57:50.281Z,12.22
2019-05-16T20:00:20.529Z,12.17
2019-05-16T20:02:52.351Z,12.19
2019-05-16T20:05:22.910Z,12.31
2019-05-16T20:07:53.081Z,12.52
2019-05-16T20:10:23.310Z,12.35
2019-05-16T20:12:53.576Z,12.40
2019-05-16T20:15:23.802Z,12.51
2019-05-16T20:17:57.786Z,12.47
2019-05-16T20:20:27.539Z,12.53
2019-05-16T20:22:57.756Z,12.46
2019-05-16T20:25:28.016Z,12.47
2019-05-16T20:27:58.177Z,12.37
2019-05-16T20:30:28.463Z,12.45
2019-05-16T20:32:58.718Z,12.55
2019-05-16T20:35:29.026Z,12.51
2019-05-16T20:37:59.150Z,12.62
2019-05-16T20:40:29.326Z,12.60
2019-05-16T20:42:59.587Z,12.70
2019-05-16T20:45:29.671Z,12.71
2019-05-16T20:48:10.871Z,12.76
2019-05-16T20:50:31.768Z,12.80
2019-05-16T20:53:01.948Z,12.82
2019-05-16T20:55:32.146Z,12.73
2019-05-16T20:58:02.288Z,12.86
2019-05-16T21:00:33.505Z,12.80
2019-05-16T21:03:03.620Z,12.90
2019-05-16T21:05:33.879Z,12.87
2019-05-16T21:08:06.277Z,12.95
2019-05-16T21:10:35.858Z,12.97
2019-05-16T21:13:07.171Z,13.04
2019-05-16T21:15:37.705Z,13.09
2019-05-16T21:18:07.907Z,13.02
2019-05-16T21:20:38.889Z,13.06
2019-05-16T21:23:09.249Z,13.08
2019-05-16T21:25:39.523Z,13.09
2019-05-16T21:28:09.782Z,13.13
2019-05-16T21:30:40.149Z,13.17
2019-05-16T21:33:10.543Z,13.14
2019-05-16T21:35:40.790Z,13.09
2019-05-16T21:38:10.997Z,13.16
2019-05-16T21:40:41.189Z,13.17
2019-05-16T21:43:13.039Z,13.17
2019-05-16T21:45:43.214Z,13.19
2019-05-16T21:48:16.330Z,13.23
2019-05-16T21:50:47.140Z,13.23
2019-05-16T21:53:17.836Z,13.18
2019-05-16T21:55:48.020Z,13.14
2019-05-16T21:58:18.271Z,13.13
2019-05-16T22:00:51.374Z,13.17
2019-05-16T22:03:21.891Z,13.14
2019-05-16T22:05:52.159Z,13.19
2019-05-16T22:08:22.341Z,13.13
2019-05-16T22:10:52.898Z,13.10
2019-05-16T22:13:23.391Z,13.13
2019-05-16T22:15:53.704Z,13.08
2019-05-16T22:18:26.661Z,13.12
2019-05-16T22:20:57.113Z,13.08
2019-05-16T22:23:27.605Z,13.11
2019-05-16T22:25:57.731Z,13.05
2019-05-16T22:28:30.106Z,12.98
2019-05-16T22:30:59.828Z,12.98
2019-05-16T22:33:30.011Z,12.98
2019-05-16T22:36:00.150Z,12.98
2019-05-16T22:38:31.955Z,12.92
2019-05-16T22:41:02.193Z,12.91
2019-05-16T22:43:32.402Z,12.75
2019-05-16T22:46:02.656Z,12.71
2019-05-16T22:48:32.756Z,12.81
2019-05-16T22:51:06.952Z,12.72
2019-05-16T22:53:36.921Z,12.70
2019-05-16T22:56:07.531Z,12.82
2019-05-16T22:58:38.910Z,12.77
2019-05-16T23:01:09.112Z,12.78
2019-05-16T23:03:45.785Z,12.73
2019-05-16T23:06:16.353Z,12.86
2019-05-16T23:08:47.128Z,12.78
2019-05-16T23:11:17.509Z,12.81
2019-05-16T23:13:47.726Z,12.78
2019-05-16T23:16:17.907Z,12.76
2019-05-16T23:18:48.191Z,12.78
2019-05-16T23:21:18.379Z,12.74
2019-05-16T23:23:48.556Z,12.73
2019-05-16T23:26:18.748Z,12.69
2019-05-16T23:28:48.913Z,12.71
2019-05-16T23:31:20.974Z,12.74
2019-05-16T23:33:51.060Z,12.68
2019-05-16T23:36:21.240Z,12.66
2019-05-16T23:38:51.410Z,12.70
2019-05-16T23:41:21.688Z,12.69
2019-05-16T23:43:51.834Z,12.70
2019-05-16T23:46:22.003Z,12.63
2019-05-16T23:48:52.209Z,12.67
2019-05-16T23:51:24.013Z,12.57
2019-05-16T23:53:54.246Z,12.57
2019-05-16T23:56:24.387Z,12.62
2019-05-16T23:58:56.849Z,12.57
